Current Conditions
Clear
Conditions



Pressure
1011.92 (hPa) - 29.88 (inHG)
Visibility

10.0 (km) - 6.2 (miles)
   Temperature
2  °C
36°F
0  °C
Dewpoint
87  %
 Humidity
   Wind Speed
11  km/h
6  kts
7  mph
3.1  m/s
   Wind Direction
 10°
Due North
   Airport Data
LIME
Location Il Caravaggio International 45 km (27.97 mi)
Metar :LIME 150350Z 01006KT CAVOK 02/M00 Q1012 NOSIG
Sun 15th December 05:50 am
   Raw Metar Info
Raw METAR is the most common format in the world for the transmission of observational weather data. It is highly standardized through the International Civil Aviation Organization (ICAO), which allows it to be understood throughout most of the world.
   API Info
Data Provided by
https://www.checkwx.com/weather/LIME
   © Info
CSS/SVG/PHP scripts were developed by weather34.com for use in the weather34 template © 2015-2019

Guide Info provided by Metar-Wikipedia